createdAt,value
2018-06-13T00:24:53.799Z,99094.91
2018-06-13T00:30:59.452Z,99096.98
2018-06-13T00:37:05.313Z,99094.70
2018-06-13T00:43:11.012Z,99085.59
2018-06-13T00:49:17.325Z,99091.63
2018-06-13T00:55:23.756Z,99087.22
2018-06-13T01:01:29.468Z,99085.63
2018-06-13T01:07:35.129Z,99080.98
2018-06-13T01:13:40.768Z,99074.53
2018-06-13T01:19:46.606Z,99073.36
2018-06-13T01:25:54.694Z,99062.75
2018-06-13T01:32:00.477Z,99057.03
2018-06-13T01:38:06.253Z,99056.63
2018-06-13T01:44:11.914Z,99055.75
2018-06-13T01:50:17.574Z,99056.05
2018-06-13T01:56:23.664Z,99056.80
2018-06-13T02:02:29.367Z,99060.61
2018-06-13T02:08:35.033Z,99060.92
2018-06-13T02:14:40.699Z,99062.53
2018-06-13T02:20:46.389Z,99061.72
2018-06-13T02:26:52.412Z,99071.00
2018-06-13T02:32:58.071Z,99076.56
2018-06-13T02:39:03.865Z,99088.18
2018-06-13T02:45:09.544Z,99076.53
2018-06-13T02:51:15.161Z,99076.73
2018-06-13T02:57:20.935Z,99084.17
2018-06-13T03:03:26.807Z,99080.03
2018-06-13T03:09:32.577Z,99083.44
2018-06-13T03:15:38.204Z,99081.69
2018-06-13T03:21:43.879Z,99073.46
2018-06-13T03:27:49.884Z,99082.17
2018-06-13T03:33:56.508Z,99083.23
2018-06-13T03:40:02.103Z,99082.12
2018-06-13T03:46:07.845Z,99097.22
2018-06-13T03:52:13.511Z,99086.87
2018-06-13T03:58:19.385Z,99088.63
2018-06-13T04:04:25.360Z,99101.37
2018-06-13T04:10:30.970Z,99101.46
2018-06-13T04:16:36.654Z,99091.80
2018-06-13T04:22:42.416Z,99100.45
2018-06-13T04:28:48.144Z,99108.09
2018-06-13T04:47:55.011Z,99100.84
2018-06-13T04:54:00.825Z,99104.52
2018-06-13T05:00:06.605Z,99115.75
2018-06-13T05:06:12.324Z,99127.78
2018-06-13T05:12:17.971Z,99132.22
2018-06-13T05:18:24.516Z,99132.97
2018-06-13T05:24:30.298Z,99131.78
2018-06-13T05:30:35.999Z,99140.41
2018-06-13T05:36:41.921Z,99144.58
2018-06-13T05:42:48.119Z,99155.14
2018-06-13T05:48:54.814Z,99164.74
2018-06-13T05:55:00.503Z,99170.48
2018-06-13T06:01:06.717Z,99166.44
2018-06-13T06:07:12.706Z,99181.59
2018-06-13T06:13:18.437Z,99182.15
2018-06-13T06:19:26.120Z,99178.95
2018-06-13T06:25:32.034Z,99181.05
2018-06-13T06:31:38.199Z,99187.59
2018-06-13T06:37:43.854Z,99181.95
2018-06-13T06:43:50.251Z,99178.16
2018-06-13T06:49:56.057Z,99183.97
2018-06-13T06:56:01.776Z,99188.74
2018-06-13T07:02:07.789Z,99192.74
2018-06-13T07:08:13.804Z,99189.59
2018-06-13T07:14:19.544Z,99189.06
2018-06-13T07:20:26.619Z,99196.67
2018-06-13T07:26:32.335Z,99189.22
2018-06-13T07:32:38.044Z,99192.00
2018-06-13T07:38:44.084Z,99188.91
2018-06-13T07:44:49.903Z,99193.33
2018-06-13T07:50:56.321Z,99188.48
2018-06-13T07:57:02.821Z,99193.00
2018-06-13T08:03:08.565Z,99193.86
2018-06-13T08:09:14.244Z,99199.37
2018-06-13T08:15:22.191Z,99199.80
2018-06-13T08:21:28.024Z,99206.60
2018-06-13T08:27:33.751Z,99211.47
2018-06-13T08:33:39.753Z,99215.56
2018-06-13T08:39:45.444Z,99217.27
2018-06-13T08:45:53.397Z,99214.64
2018-06-13T08:51:59.118Z,99205.69
2018-06-13T08:58:04.741Z,99206.86
2018-06-13T09:04:10.616Z,99189.09
2018-06-13T09:10:16.628Z,99189.45
2018-06-13T09:16:23.290Z,99194.41
2018-06-13T09:22:29.055Z,99194.99
2018-06-13T09:28:34.606Z,99199.04
2018-06-13T09:34:40.326Z,99188.39
2018-06-13T09:40:45.978Z,99192.99
2018-06-13T09:46:52.184Z,99191.33
2018-06-13T09:52:57.937Z,99198.72
2018-06-13T09:59:08.787Z,99201.61
2018-06-13T10:05:14.440Z,99206.12
2018-06-13T10:11:20.496Z,99222.03
2018-06-13T10:17:26.799Z,99238.20
2018-06-13T10:23:32.753Z,99247.68
2018-06-13T10:29:38.574Z,99242.89
2018-06-13T10:35:44.416Z,99257.19
2018-06-13T10:41:50.414Z,99249.58
2018-06-13T10:47:56.428Z,99249.31
2018-06-13T10:54:02.073Z,99246.09
2018-06-13T11:00:07.990Z,99244.67
2018-06-13T11:06:13.637Z,99245.31
2018-06-13T11:12:19.589Z,99247.59
2018-06-13T11:18:26.367Z,99244.63
2018-06-13T11:24:31.949Z,99253.58
2018-06-13T11:30:37.802Z,99252.78
2018-06-13T11:36:43.661Z,99257.13
2018-06-13T11:42:49.712Z,99254.51
2018-06-13T11:48:55.796Z,99256.30
2018-06-13T11:55:01.448Z,99254.43
2018-06-13T12:01:07.290Z,99248.64
2018-06-13T12:07:12.964Z,99241.94
2018-06-13T12:13:18.888Z,99238.15
2018-06-13T12:19:24.651Z,99241.93
2018-06-13T12:25:29.959Z,99249.05
2018-06-13T12:31:35.475Z,99247.68
2018-06-13T12:37:41.158Z,99250.69
2018-06-13T12:43:46.857Z,99252.84
2018-06-13T12:49:52.909Z,99256.62
2018-06-13T12:55:58.539Z,99255.46
2018-06-13T13:02:04.175Z,99255.23
2018-06-13T13:08:09.914Z,99260.61
2018-06-13T13:14:16.067Z,99262.50
2018-06-13T13:20:22.217Z,99262.13
2018-06-13T13:26:27.825Z,99268.81
2018-06-13T13:32:33.475Z,99259.94
2018-06-13T13:38:39.087Z,99265.84
2018-06-13T13:44:44.786Z,99274.41
2018-06-13T13:50:51.601Z,99268.73
2018-06-13T13:56:57.510Z,99270.59
2018-06-13T14:03:04.056Z,99271.05
2018-06-13T14:09:11.488Z,99272.22
2018-06-13T14:15:17.153Z,99269.13
2018-06-13T14:21:24.290Z,99268.64
2018-06-13T14:27:29.937Z,99267.06
2018-06-13T14:33:35.628Z,99280.50
2018-06-13T14:39:41.354Z,99291.25
2018-06-13T14:45:47.160Z,99294.48
2018-06-13T14:51:54.092Z,99291.20
2018-06-13T14:57:59.702Z,99300.69
2018-06-13T15:04:05.423Z,99303.81
2018-06-13T15:10:11.177Z,99288.94
2018-06-13T15:16:17.226Z,99291.61
2018-06-13T15:22:23.089Z,99276.17
2018-06-13T15:28:28.870Z,99274.41
2018-06-13T15:34:34.772Z,99288.00
2018-06-13T15:40:40.590Z,99288.22
2018-06-13T15:46:46.231Z,99291.08
2018-06-13T15:52:52.683Z,99285.03
2018-06-13T15:58:58.368Z,99273.97
2018-06-13T16:05:04.153Z,99271.89
2018-06-13T16:11:09.881Z,99268.16
2018-06-13T16:17:15.849Z,99268.80
2018-06-13T16:23:21.864Z,99294.05
2018-06-13T16:29:27.669Z,99305.66
2018-06-13T16:35:33.293Z,99315.48
2018-06-13T16:41:39.388Z,99316.25
2018-06-13T16:47:45.243Z,99323.00
2018-06-13T16:54:05.320Z,99336.72
2018-06-13T17:00:10.976Z,99326.42
2018-06-13T17:06:16.632Z,99326.74
2018-06-13T17:12:24.828Z,99322.94
2018-06-13T17:18:30.744Z,99322.20
2018-06-13T17:24:36.404Z,99333.02
2018-06-13T17:30:42.043Z,99334.56
2018-06-13T17:36:47.706Z,99351.83
2018-06-13T17:42:53.623Z,99365.44
2018-06-13T17:48:59.287Z,99356.06
2018-06-13T17:55:05.300Z,99362.20
2018-06-13T18:01:11.001Z,99373.02
2018-06-13T18:07:17.066Z,99377.08
2018-06-13T18:13:23.750Z,99379.81
2018-06-13T18:19:29.398Z,99390.48
2018-06-13T18:25:35.137Z,99384.63
2018-06-13T18:31:40.968Z,99397.06
2018-06-13T18:37:46.676Z,99397.95
2018-06-13T18:43:54.089Z,99407.00
2018-06-13T18:49:59.964Z,99405.67
2018-06-13T18:56:05.807Z,99414.73
2018-06-13T19:02:11.469Z,99418.92
2018-06-13T19:08:17.212Z,99417.59
2018-06-13T19:14:23.482Z,99417.14
2018-06-13T19:20:29.348Z,99412.73
2018-06-13T19:26:35.084Z,99419.28
2018-06-13T19:32:40.770Z,99427.64
2018-06-13T19:38:46.583Z,99421.83
2018-06-13T19:44:53.726Z,99423.42
2018-06-13T19:50:59.318Z,99441.54
2018-06-13T19:57:05.232Z,99440.59
2018-06-13T20:03:15.995Z,99439.48
2018-06-13T20:09:22.333Z,99442.05
2018-06-13T20:15:33.475Z,99443.73
2018-06-13T20:21:39.303Z,99442.63
2018-06-13T20:27:50.376Z,99435.13
2018-06-13T20:33:56.817Z,99446.70
2018-06-13T20:40:02.661Z,99454.89
2018-06-13T20:46:08.727Z,99458.34
2018-06-13T20:52:14.372Z,99465.47
2018-06-13T20:58:20.490Z,99465.61
2018-06-13T21:04:26.552Z,99477.09
2018-06-13T21:10:32.375Z,99470.83
2018-06-13T21:16:38.122Z,99476.52
2018-06-13T21:22:43.751Z,99480.41
2018-06-13T21:28:50.081Z,99481.06
2018-06-13T21:34:56.310Z,99481.36
2018-06-13T21:41:02.220Z,99494.77
2018-06-13T21:47:07.825Z,99477.06
2018-06-13T21:53:13.481Z,99483.13
2018-06-13T21:59:19.799Z,99482.63
2018-06-13T22:05:25.721Z,99479.72
2018-06-13T22:11:35.418Z,99471.89
2018-06-13T22:17:41.147Z,99482.25
2018-06-13T22:23:46.848Z,99477.09
2018-06-13T22:29:53.575Z,99479.62
2018-06-13T22:35:59.357Z,99480.58
2018-06-13T22:42:05.072Z,99470.59
2018-06-13T22:48:10.898Z,99479.86
2018-06-13T22:54:16.706Z,99479.75
2018-06-13T23:00:36.681Z,99479.59
2018-06-13T23:06:42.059Z,99477.95
2018-06-13T23:12:47.984Z,99468.73
2018-06-13T23:18:54.280Z,99469.45
2018-06-13T23:25:00.101Z,99480.83
2018-06-13T23:31:05.765Z,99489.02
2018-06-13T23:37:11.396Z,99498.16
2018-06-13T23:43:17.167Z,99500.71
2018-06-13T23:49:24.251Z,99506.44
2018-06-13T23:55:30.193Z,99495.29
